Time;durP1;ratioP1;P1;durP2;ratioP2;P2;SDS_P1;SDS_P2;PMS_P1;PMS_P2;Temp;Humidity;BMP_temperature;BMP_pressure;BME280_temperature;BME280_humidity;BME280_pressure;Samples;Min_cycle;Max_cycle;Signal;HPM_P1;HPM_P2
2020/12/22 00:01:35;;;;;;;152.57;85.53;;;6.50;99.90;;;;;;5073234;28;20032;-75
2020/12/22 00:04:01;;;;;;;150.88;82.25;;;6.40;99.90;;;;;;5074370;28;20109;-75
2020/12/22 00:06:27;;;;;;;134.80;75.15;;;6.40;99.90;;;;;;5073246;28;20020;-74
2020/12/22 00:08:53;;;;;;;144.13;78.32;;;6.40;99.90;;;;;;5074379;28;20482;-74
2020/12/22 00:11:20;;;;;;;151.02;82.50;;;6.40;99.90;;;;;;5074235;28;20486;-74
2020/12/22 00:13:46;;;;;;;143.55;78.25;;;6.40;99.90;;;;;;5074206;28;20025;-74
2020/12/22 00:16:12;;;;;;;143.88;77.30;;;6.30;99.90;;;;;;5074284;28;20024;-75
2020/12/22 00:18:38;;;;;;;137.27;76.05;;;6.30;99.90;;;;;;5074145;28;20364;-75
2020/12/22 00:21:04;;;;;;;135.13;74.22;;;6.40;99.90;;;;;;5072914;28;20055;-75
2020/12/22 00:23:30;;;;;;;126.82;68.32;;;6.30;99.90;;;;;;5073793;28;20088;-74
2020/12/22 00:25:56;;;;;;;125.20;68.60;;;6.30;99.90;;;;;;5074047;28;20075;-75
2020/12/22 00:28:21;;;;;;;110.78;58.83;;;6.30;99.90;;;;;;5074047;28;20146;-75
2020/12/22 00:30:50;;;;;;;117.32;61.95;;;6.30;99.90;;;;;;5074028;28;20402;-75
2020/12/22 00:33:16;;;;;;;114.15;61.00;;;6.30;99.90;;;;;;5074008;28;20032;-75
2020/12/22 00:35:42;;;;;;;123.10;62.03;;;6.20;99.90;;;;;;5073834;28;20471;-75
2020/12/22 00:38:09;;;;;;;98.53;55.28;;;6.20;99.90;;;;;;5073894;28;20348;-75
2020/12/22 00:40:34;;;;;;;107.80;55.72;;;6.20;99.90;;;;;;5073933;28;20025;-75
2020/12/22 00:43:02;;;;;;;98.15;55.40;;;6.20;99.90;;;;;;5073966;28;20098;-75
2020/12/22 00:45:30;;;;;;;124.80;64.97;;;6.20;99.90;;;;;;5073799;28;20021;-75
2020/12/22 00:47:56;;;;;;;114.35;62.25;;;6.20;99.90;;;;;;5073799;28;20495;-75
2020/12/22 00:50:22;;;;;;;114.55;61.58;;;6.30;99.90;;;;;;5073943;28;20406;-75
2020/12/22 00:52:48;;;;;;;103.03;57.58;;;6.20;99.90;;;;;;5073806;28;20032;-75
2020/12/22 00:55:14;;;;;;;182.13;85.75;;;6.20;99.90;;;;;;5072356;28;20029;-76
2020/12/22 00:57:40;;;;;;;156.15;75.63;;;6.20;99.90;;;;;;5073540;28;20029;-75
2020/12/22 01:00:07;;;;;;;121.72;62.33;;;6.20;99.90;;;;;;5073425;28;20422;-75
2020/12/22 01:02:34;;;;;;;118.13;61.35;;;6.20;99.90;;;;;;5072051;28;20170;-75
2020/12/22 01:05:00;;;;;;;109.32;58.45;;;6.20;99.90;;;;;;5072064;28;20031;-75
2020/12/22 01:07:26;;;;;;;113.65;59.53;;;6.20;99.90;;;;;;5073399;28;20088;-74
2020/12/22 01:09:51;;;;;;;100.82;53.00;;;6.20;99.90;;;;;;5073310;28;20028;-75
2020/12/22 01:12:17;;;;;;;92.82;49.97;;;6.20;99.90;;;;;;5072710;28;20070;-75
2020/12/22 01:14:44;;;;;;;117.53;62.30;;;6.20;99.90;;;;;;5071892;28;20064;-75
2020/12/22 01:17:10;;;;;;;137.82;66.75;;;6.20;99.90;;;;;;5072991;28;20035;-75
2020/12/22 01:19:36;;;;;;;99.07;51.63;;;6.20;99.90;;;;;;5073163;28;20020;-75
2020/12/22 01:22:02;;;;;;;99.38;54.55;;;6.20;99.90;;;;;;5072925;28;20380;-75
2020/12/22 01:24:27;;;;;;;113.07;58.38;;;6.20;99.90;;;;;;5071500;28;20048;-75
2020/12/22 01:26:53;;;;;;;133.95;64.05;;;6.20;99.90;;;;;;5073024;28;20069;-75
2020/12/22 01:29:20;;;;;;;140.02;64.80;;;6.10;99.90;;;;;;5072956;28;20020;-75
2020/12/22 01:31:47;;;;;;;128.15;62.47;;;6.10;99.90;;;;;;5073012;28;20077;-75
2020/12/22 01:34:13;;;;;;;119.05;56.33;;;6.10;99.90;;;;;;5072814;28;20028;-75
2020/12/22 01:36:39;;;;;;;102.55;50.40;;;6.10;99.90;;;;;;5072942;28;20043;-75
2020/12/22 01:39:05;;;;;;;93.43;50.80;;;6.10;99.90;;;;;;5072786;28;20099;-75
2020/12/22 01:41:32;;;;;;;107.30;50.00;;;6.10;99.90;;;;;;5072777;28;20395;-75
2020/12/22 01:44:04;;;;;;;87.25;45.25;;;6.10;99.90;;;;;;5072626;28;20043;-75
2020/12/22 01:46:36;;;;;;;77.22;46.38;;;6.10;99.90;;;;;;5072612;28;20095;-74
2020/12/22 01:49:07;;;;;;;83.50;47.90;;;6.00;99.90;;;;;;5072470;28;20176;-75
2020/12/22 01:51:33;;;;;;;90.68;46.95;;;6.10;99.90;;;;;;5072420;28;20067;-75
2020/12/22 01:54:00;;;;;;;71.82;41.45;;;6.00;99.90;;;;;;5072528;28;20492;-75
2020/12/22 01:56:27;;;;;;;72.78;41.35;;;6.00;99.90;;;;;;5072297;28;20021;-75
2020/12/22 01:58:53;;;;;;;76.13;42.38;;;6.00;99.90;;;;;;5072350;28;20111;-75
2020/12/22 02:01:19;;;;;;;71.85;40.30;;;6.00;99.90;;;;;;5072213;28;20033;-75
2020/12/22 02:03:45;;;;;;;72.82;41.55;;;6.00;99.90;;;;;;5072250;28;20060;-75
2020/12/22 02:06:11;;;;;;;72.85;42.55;;;5.90;99.90;;;;;;5072151;28;20562;-75
2020/12/22 02:08:37;;;;;;;81.60;45.08;;;5.90;99.90;;;;;;5072153;28;20093;-75
2020/12/22 02:11:03;;;;;;;77.05;44.47;;;5.90;99.90;;;;;;5072023;28;20102;-75
2020/12/22 02:13:29;;;;;;;74.20;44.45;;;5.90;99.90;;;;;;5072155;28;20040;-75
2020/12/22 02:15:55;;;;;;;80.95;43.60;;;5.90;99.90;;;;;;5071924;28;20464;-75
2020/12/22 02:18:21;;;;;;;74.30;43.63;;;5.80;99.90;;;;;;5071940;28;20025;-75
2020/12/22 02:20:48;;;;;;;80.35;43.72;;;5.80;99.90;;;;;;5070633;28;20454;-75
2020/12/22 02:23:13;;;;;;;93.60;48.25;;;5.80;99.90;;;;;;5071389;28;20052;-75
2020/12/22 02:25:46;;;;;;;91.03;47.80;;;5.80;99.90;;;;;;5071058;28;20086;-75
2020/12/22 02:28:13;;;;;;;89.72;46.88;;;5.70;99.90;;;;;;5072020;28;20028;-75
2020/12/22 02:30:39;;;;;;;96.10;50.05;;;5.70;99.90;;;;;;5070456;28;20082;-75
2020/12/22 02:33:05;;;;;;;109.15;52.65;;;5.60;99.90;;;;;;5071705;28;20028;-75
2020/12/22 02:35:31;;;;;;;107.43;55.63;;;5.60;99.90;;;;;;5071749;28;20024;-75
2020/12/22 02:37:57;;;;;;;111.60;52.92;;;5.60;99.90;;;;;;5071570;28;20372;-75
2020/12/22 02:40:22;;;;;;;99.68;50.78;;;5.50;99.90;;;;;;5071703;28;20113;-75
2020/12/22 02:42:48;;;;;;;96.80;51.85;;;5.50;99.90;;;;;;5071515;28;20039;-74
2020/12/22 02:45:15;;;;;;;94.07;50.58;;;5.40;99.90;;;;;;5071367;28;20028;-74
2020/12/22 02:47:40;;;;;;;95.00;49.40;;;5.40;99.90;;;;;;5071363;28;20030;-74
2020/12/22 02:50:06;;;;;;;97.93;53.15;;;5.40;99.90;;;;;;5071360;28;20103;-74
2020/12/22 02:52:32;;;;;;;98.82;53.92;;;5.40;99.90;;;;;;5071345;28;20025;-74
2020/12/22 02:54:58;;;;;;;97.60;50.88;;;5.30;99.90;;;;;;5071380;28;20109;-75
2020/12/22 02:57:23;;;;;;;95.43;51.78;;;5.30;99.90;;;;;;5071469;28;20035;-74
2020/12/22 02:59:49;;;;;;;94.32;52.85;;;5.30;99.90;;;;;;5069985;28;20032;-74
2020/12/22 03:02:15;;;;;;;110.65;58.45;;;5.30;99.90;;;;;;5071201;28;20547;-74
2020/12/22 03:04:41;;;;;;;119.93;63.63;;;5.30;99.90;;;;;;5071060;28;20024;-75
2020/12/22 03:07:07;;;;;;;124.22;70.72;;;5.30;99.90;;;;;;5071093;28;20028;-74
2020/12/22 03:09:32;;;;;;;119.82;65.53;;;5.30;99.90;;;;;;5071046;28;20376;-75
2020/12/22 03:11:59;;;;;;;103.45;58.88;;;5.20;99.90;;;;;;5071024;28;20024;-74
2020/12/22 03:14:24;;;;;;;101.07;58.50;;;5.30;99.90;;;;;;5071090;28;20032;-74
2020/12/22 03:16:50;;;;;;;97.38;56.63;;;5.20;99.90;;;;;;5069623;28;20032;-74
2020/12/22 03:19:16;;;;;;;88.63;52.45;;;5.20;99.90;;;;;;5071060;28;20033;-75
2020/12/22 03:21:42;;;;;;;88.35;53.00;;;5.20;99.90;;;;;;5070950;28;20024;-74
2020/12/22 03:24:07;;;;;;;86.15;52.20;;;5.20;99.90;;;;;;5070495;28;20040;-74
2020/12/22 03:26:33;;;;;;;87.43;51.17;;;5.20;99.90;;;;;;5070793;28;20033;-75
2020/12/22 03:28:59;;;;;;;88.43;49.70;;;5.20;99.90;;;;;;5070969;28;20021;-74
2020/12/22 03:31:25;;;;;;;84.70;49.95;;;5.20;99.90;;;;;;5069472;28;20395;-75
2020/12/22 03:33:51;;;;;;;93.32;50.55;;;5.10;99.90;;;;;;5071011;28;20033;-75
2020/12/22 03:36:16;;;;;;;97.60;54.80;;;5.00;99.90;;;;;;5070636;28;20029;-75
2020/12/22 03:38:42;;;;;;;91.55;51.80;;;4.90;99.90;;;;;;5071333;28;20024;-75
2020/12/22 03:41:09;;;;;;;84.70;48.08;;;4.90;99.90;;;;;;5071109;28;20028;-75
2020/12/22 03:43:35;;;;;;;92.10;51.65;;;4.90;99.90;;;;;;5071020;28;20674;-75
2020/12/22 03:46:05;;;;;;;90.47;50.85;;;4.90;99.90;;;;;;5071037;28;20025;-75
2020/12/22 03:48:30;;;;;;;87.53;50.33;;;4.90;99.90;;;;;;5071061;28;20032;-75
2020/12/22 03:50:57;;;;;;;95.78;54.05;;;4.80;99.90;;;;;;5070895;28;20027;-75
2020/12/22 03:53:23;;;;;;;87.65;49.30;;;4.80;99.90;;;;;;5070793;28;20021;-75
2020/12/22 03:55:49;;;;;;;82.43;46.38;;;4.80;99.90;;;;;;5070608;28;20490;-75
2020/12/22 03:58:14;;;;;;;89.20;48.35;;;4.80;99.90;;;;;;5070648;28;20021;-75
2020/12/22 04:00:40;;;;;;;88.30;51.00;;;4.80;99.90;;;;;;5070649;28;20024;-75
2020/12/22 04:03:06;;;;;;;103.40;53.75;;;4.80;99.90;;;;;;5070538;28;20021;-74
2020/12/22 04:05:32;;;;;;;98.13;56.75;;;4.80;99.90;;;;;;5070534;28;20078;-75
2020/12/22 04:07:58;;;;;;;115.22;61.88;;;4.80;99.90;;;;;;5070476;28;20052;-75
2020/12/22 04:10:23;;;;;;;93.82;54.63;;;4.80;99.90;;;;;;5070668;28;20035;-75
2020/12/22 04:12:49;;;;;;;98.53;54.60;;;4.80;99.90;;;;;;5070477;28;20027;-75
2020/12/22 04:15:15;;;;;;;100.95;56.30;;;4.70;99.90;;;;;;5070540;28;20878;-75
2020/12/22 04:17:41;;;;;;;102.50;58.53;;;4.70;99.90;;;;;;5070673;28;20029;-75
2020/12/22 04:20:07;;;;;;;123.18;54.65;;;4.60;99.90;;;;;;5069280;28;20427;-75
2020/12/22 04:22:33;;;;;;;89.68;50.33;;;4.60;99.90;;;;;;5070080;28;20075;-75
2020/12/22 04:24:59;;;;;;;166.52;75.55;;;4.60;99.90;;;;;;5069194;28;20112;-75
2020/12/22 04:27:24;;;;;;;152.98;76.68;;;4.60;99.90;;;;;;5086000;28;20536;-75
2020/12/22 04:29:50;;;;;;;96.95;50.88;;;4.50;99.90;;;;;;5069153;28;20107;-75
2020/12/22 04:32:16;;;;;;;103.93;51.15;;;4.50;99.90;;;;;;5070451;28;20033;-75
2020/12/22 04:34:42;;;;;;;96.90;50.40;;;4.50;99.90;;;;;;5070488;28;20027;-75
2020/12/22 04:37:08;;;;;;;88.03;45.97;;;4.40;99.90;;;;;;5070445;28;20028;-75
2020/12/22 04:39:33;;;;;;;97.88;48.08;;;4.40;99.90;;;;;;5069111;28;20119;-75
2020/12/22 04:42:01;;;;;;;79.43;45.22;;;4.40;99.90;;;;;;5070233;28;20412;-74
2020/12/22 04:44:27;;;;;;;88.47;46.00;;;4.40;99.90;;;;;;5068911;28;20035;-74
2020/12/22 04:46:53;;;;;;;87.78;46.63;;;4.40;99.90;;;;;;5070151;28;20514;-74
2020/12/22 04:49:23;;;;;;;91.47;48.22;;;4.40;99.90;;;;;;5073534;28;20032;-75
2020/12/22 04:51:51;;;;;;;109.63;58.33;;;4.30;99.90;;;;;;5073597;28;20023;-75
2020/12/22 04:54:20;;;;;;;181.88;80.75;;;4.30;99.90;;;;;;5072290;28;20383;-75
2020/12/22 04:56:50;;;;;;;186.55;84.30;;;4.30;99.90;;;;;;5073929;28;20039;-75
2020/12/22 04:59:16;;;;;;;196.10;87.72;;;4.30;99.90;;;;;;5073598;28;20039;-75
2020/12/22 05:01:42;;;;;;;138.95;66.00;;;4.20;99.90;;;;;;5073398;28;20028;-75
2020/12/22 05:04:15;;;;;;;100.75;54.33;;;4.30;99.90;;;;;;5073416;28;20024;-75
2020/12/22 05:06:41;;;;;;;93.82;52.00;;;4.30;99.90;;;;;;5073522;28;20024;-75
2020/12/22 05:09:07;;;;;;;97.93;52.70;;;4.20;99.90;;;;;;5073443;28;20059;-75
2020/12/22 05:11:36;;;;;;;100.38;52.35;;;4.30;99.90;;;;;;5073374;28;20028;-75
2020/12/22 05:14:04;;;;;;;102.93;52.03;;;4.30;99.90;;;;;;5073390;28;20040;-75
2020/12/22 05:16:30;;;;;;;90.75;49.78;;;4.30;99.90;;;;;;5073200;28;20466;-74
2020/12/22 05:18:56;;;;;;;96.70;54.25;;;4.40;99.90;;;;;;5073160;28;20029;-75
2020/12/22 05:21:23;;;;;;;90.90;53.55;;;4.40;99.90;;;;;;5073189;28;20479;-74
2020/12/22 05:23:53;;;;;;;93.28;51.10;;;4.40;99.90;;;;;;5072842;28;20127;-74
2020/12/22 05:26:22;;;;;;;107.80;56.67;;;4.40;99.90;;;;;;5073198;28;20391;-75
2020/12/22 05:28:49;;;;;;;109.25;56.45;;;4.40;99.90;;;;;;5072656;28;20056;-75
2020/12/22 05:31:15;;;;;;;119.13;65.43;;;4.50;99.90;;;;;;5072913;28;20147;-75
2020/12/22 05:33:45;;;;;;;159.43;70.18;;;4.50;99.90;;;;;;5073009;28;20368;-75
2020/12/22 05:36:12;;;;;;;141.05;70.63;;;4.50;99.90;;;;;;5072989;28;20029;-75
2020/12/22 05:38:38;;;;;;;152.25;77.72;;;4.50;99.90;;;;;;5072832;28;20028;-75
2020/12/22 05:41:05;;;;;;;161.70;76.07;;;4.50;99.90;;;;;;5073114;28;20035;-75
2020/12/22 05:43:42;;;;;;;141.95;69.80;;;4.50;99.90;;;;;;5072786;28;20032;-75
2020/12/22 05:46:11;;;;;;;168.23;77.13;;;4.50;99.90;;;;;;5072910;28;20020;-75
2020/12/22 05:48:37;;;;;;;154.23;76.35;;;4.60;99.90;;;;;;5072659;28;20031;-75
2020/12/22 05:51:06;;;;;;;165.70;82.25;;;4.60;99.90;;;;;;5071463;28;20034;-75
2020/12/22 05:53:32;;;;;;;153.32;79.00;;;4.60;99.90;;;;;;5072848;28;20021;-75
2020/12/22 05:56:16;;;;;;;144.50;76.10;;;4.60;99.90;;;;;;5072641;28;20472;-75
2020/12/22 05:58:42;;;;;;;145.38;74.80;;;4.60;99.90;;;;;;5072595;28;20026;-75
2020/12/22 06:01:12;;;;;;;136.55;70.60;;;4.60;99.90;;;;;;5072481;28;20518;-75
2020/12/22 06:03:38;;;;;;;129.30;72.07;;;4.70;99.90;;;;;;5072263;28;20104;-75
2020/12/22 06:06:06;;;;;;;144.38;76.47;;;4.60;99.90;;;;;;5072494;28;20245;-75
2020/12/22 06:08:32;;;;;;;156.73;82.63;;;4.60;99.90;;;;;;5072362;28;20085;-75
2020/12/22 06:11:00;;;;;;;178.00;95.45;;;4.70;99.90;;;;;;5072502;28;20028;-75
2020/12/22 06:13:27;;;;;;;133.10;81.70;;;4.70;99.90;;;;;;5072200;28;20067;-75
2020/12/22 06:15:53;;;;;;;112.78;66.43;;;4.60;99.90;;;;;;5070866;28;20025;-75
2020/12/22 06:18:20;;;;;;;114.60;67.20;;;4.70;99.90;;;;;;5072440;28;20024;-75
2020/12/22 06:20:46;;;;;;;132.05;72.63;;;4.70;99.90;;;;;;5072209;28;20036;-75
2020/12/22 06:23:13;;;;;;;116.97;66.68;;;4.70;99.90;;;;;;5071891;28;20044;-75
2020/12/22 06:25:39;;;;;;;104.75;59.58;;;4.70;99.90;;;;;;5072116;28;20067;-75
2020/12/22 06:28:14;;;;;;;109.38;62.13;;;4.70;99.90;;;;;;5071888;28;20353;-75
2020/12/22 06:30:40;;;;;;;105.32;61.38;;;4.70;99.90;;;;;;5071893;28;20031;-75
2020/12/22 06:33:19;;;;;;;117.85;63.40;;;4.80;99.90;;;;;;5071896;28;20404;-75
2020/12/22 06:36:10;;;;;;;149.48;79.28;;;4.80;99.90;;;;;;5071824;28;20024;-75
2020/12/22 06:39:03;;;;;;;175.13;88.57;;;4.80;99.90;;;;;;5071991;28;20035;-75
2020/12/22 06:41:34;;;;;;;148.98;85.90;;;4.80;99.90;;;;;;5071366;28;20036;-75
2020/12/22 06:44:25;;;;;;;157.35;87.90;;;4.70;99.90;;;;;;5070381;28;20027;-75
2020/12/22 06:47:03;;;;;;;153.43;85.93;;;4.80;99.90;;;;;;5087268;28;20024;-75
2020/12/22 06:49:54;;;;;;;148.60;82.72;;;4.70;99.90;;;;;;5071343;28;20016;-75
2020/12/22 06:52:38;;;;;;;146.98;84.70;;;4.70;99.90;;;;;;5071446;28;20027;-75
2020/12/22 06:55:08;;;;;;;138.40;81.10;;;4.70;99.90;;;;;;5071541;28;20387;-75
2020/12/22 06:57:47;;;;;;;151.55;89.15;;;4.60;99.90;;;;;;5071377;28;20025;-75
2020/12/22 07:00:26;;;;;;;162.32;95.30;;;4.60;99.90;;;;;;5071431;28;20376;-75
2020/12/22 07:03:09;;;;;;;195.23;114.65;;;4.60;99.90;;;;;;5071294;28;20033;-75
2020/12/22 07:05:45;;;;;;;198.48;111.53;;;4.60;99.90;;;;;;5071147;28;20024;-75
2020/12/22 07:08:12;;;;;;;200.15;116.63;;;4.60;99.90;;;;;;5071264;28;20487;-75
2020/12/22 07:10:44;;;;;;;196.88;110.72;;;4.60;99.90;;;;;;5070345;28;20494;-75
2020/12/22 07:13:12;;;;;;;180.45;103.25;;;4.60;99.90;;;;;;5071304;28;20044;-75
2020/12/22 07:15:47;;;;;;;159.05;94.13;;;4.60;99.90;;;;;;5071165;28;20032;-75
2020/12/22 07:18:18;;;;;;;155.30;90.07;;;4.70;99.90;;;;;;5069765;28;20404;-75
2020/12/22 07:20:46;;;;;;;171.55;94.13;;;4.70;99.90;;;;;;5071073;28;20024;-75
2020/12/22 07:23:13;;;;;;;166.55;95.38;;;4.70;99.90;;;;;;5070861;28;20044;-75
2020/12/22 07:25:40;;;;;;;162.05;93.32;;;4.70;99.90;;;;;;5069811;28;20037;-75
2020/12/22 07:28:07;;;;;;;171.27;96.43;;;4.70;99.90;;;;;;5070964;28;20035;-75
2020/12/22 07:30:33;;;;;;;161.77;96.18;;;4.70;99.90;;;;;;5062551;28;20057;-75
2020/12/22 07:33:01;;;;;;;181.38;102.40;;;4.70;99.90;;;;;;5049039;28;20056;-75
2020/12/22 07:35:28;;;;;;;171.85;93.40;;;4.70;99.90;;;;;;5048841;28;20048;-74
2020/12/22 07:38:05;;;;;;;173.02;100.07;;;4.70;99.90;;;;;;5050762;28;20024;-74
2020/12/22 07:40:31;;;;;;;187.00;96.35;;;4.70;99.90;;;;;;5050888;28;20115;-75
2020/12/22 07:43:11;;;;;;;158.45;91.03;;;4.80;99.90;;;;;;5050864;28;20071;-75
2020/12/22 07:45:46;;;;;;;160.70;89.25;;;4.80;99.90;;;;;;5050757;28;20029;-75
2020/12/22 07:48:11;;;;;;;145.73;85.72;;;4.80;99.90;;;;;;5050635;28;20018;-75
2020/12/22 07:50:37;;;;;;;124.40;72.68;;;4.90;99.90;;;;;;5050731;28;20036;-75
2020/12/22 07:53:03;;;;;;;115.88;66.07;;;4.90;99.90;;;;;;5050887;28;20444;-75
2020/12/22 07:55:39;;;;;;;100.60;60.95;;;4.90;99.90;;;;;;5050723;28;20039;-75
2020/12/22 07:58:07;;;;;;;109.35;63.15;;;4.90;99.90;;;;;;5050764;28;20036;-75
2020/12/22 08:00:33;;;;;;;117.28;68.78;;;4.90;99.90;;;;;;5050682;28;20057;-74
2020/12/22 08:03:15;;;;;;;124.72;72.18;;;4.90;99.90;;;;;;5049250;28;20049;-75
2020/12/22 08:05:59;;;;;;;122.65;70.68;;;4.90;99.90;;;;;;5049334;28;20029;-75
2020/12/22 08:08:25;;;;;;;113.07;64.32;;;4.90;99.90;;;;;;5050559;28;20083;-75
2020/12/22 08:10:51;;;;;;;122.50;70.97;;;4.90;99.90;;;;;;5050860;28;20025;-75
2020/12/22 08:13:20;;;;;;;115.20;59.42;;;4.90;99.90;;;;;;5050356;28;20033;-75
2020/12/22 08:15:46;;;;;;;114.47;57.47;;;5.30;99.90;;;;;;5046645;28;20048;-75
2020/12/22 08:18:13;;;;;;;154.73;79.13;;;5.80;99.90;;;;;;5049194;28;20052;-75
2020/12/22 08:20:39;;;;;;;122.10;67.10;;;6.10;99.90;;;;;;5049023;28;20028;-75
2020/12/22 08:23:06;;;;;;;538.58;399.75;;;6.00;99.90;;;;;;5050790;28;20120;-75
2020/12/22 08:25:33;;;;;;;680.75;438.20;;;5.70;99.90;;;;;;5053037;28;20375;-74
2020/12/22 08:27:59;;;;;;;325.63;187.90;;;6.30;99.90;;;;;;5051719;28;20024;-75
2020/12/22 08:30:24;;;;;;;655.83;481.35;;;6.70;99.90;;;;;;5052868;28;20434;-74
2020/12/22 08:32:53;;;;;;;1219.22;751.90;;;7.20;99.90;;;;;;5052911;28;20021;-74
2020/12/22 08:35:21;;;;;;;192.07;119.03;;;7.60;99.90;;;;;;5053172;28;20056;-75
2020/12/22 08:37:47;;;;;;;297.63;151.65;;;7.60;99.90;;;;;;5053926;28;20072;-75
2020/12/22 08:40:29;;;;;;;259.60;141.73;;;7.00;99.90;;;;;;5053851;28;20033;-75
2020/12/22 08:42:56;;;;;;;814.45;614.90;;;6.80;99.90;;;;;;5053411;28;20028;-74
2020/12/22 08:45:22;;;;;;;277.42;189.18;;;7.20;99.90;;;;;;5053479;28;20025;-75
2020/12/22 08:47:52;;;;;;;110.68;68.72;;;7.40;99.90;;;;;;5037238;28;20421;-75
2020/12/22 08:50:18;;;;;;;101.28;63.67;;;7.20;99.90;;;;;;5033761;28;20021;-75
2020/12/22 08:52:44;;;;;;;109.70;66.90;;;7.00;99.90;;;;;;5033078;28;20021;-75
2020/12/22 08:55:10;;;;;;;76.50;45.75;;;7.10;99.90;;;;;;5033450;28;20543;-75
2020/12/22 08:57:36;;;;;;;75.15;44.75;;;7.00;99.90;;;;;;5033568;28;20021;-75
2020/12/22 09:00:15;;;;;;;99.90;58.55;;;7.00;99.90;;;;;;5037398;28;20062;-76
2020/12/22 09:02:49;;;;;;;77.70;45.85;;;7.30;99.90;;;;;;5052735;28;20048;-75
2020/12/22 09:05:15;;;;;;;76.43;47.97;;;7.30;99.90;;;;;;5050945;28;20021;-76
2020/12/22 09:07:42;;;;;;;73.72;42.15;;;7.20;99.90;;;;;;5052227;28;20039;-76
2020/12/22 09:10:09;;;;;;;64.63;39.70;;;7.20;99.90;;;;;;5050811;28;20078;-75
2020/12/22 09:12:35;;;;;;;72.40;43.38;;;7.30;99.90;;;;;;5051395;28;20091;-75
2020/12/22 09:15:01;;;;;;;81.07;44.30;;;7.30;99.90;;;;;;5053162;28;20029;-75
2020/12/22 09:17:27;;;;;;;73.20;39.60;;;7.40;99.90;;;;;;5053092;28;20024;-74
2020/12/22 09:19:53;;;;;;;111.38;56.55;;;7.50;99.90;;;;;;5052164;28;20361;-76
2020/12/22 09:22:26;;;;;;;79.25;47.80;;;7.50;99.90;;;;;;5053237;28;20047;-76
2020/12/22 09:24:53;;;;;;;86.55;50.03;;;7.50;99.90;;;;;;5053549;28;20464;-76
2020/12/22 09:27:31;;;;;;;77.70;46.00;;;7.60;99.90;;;;;;5053421;28;20773;-76
2020/12/22 09:29:58;;;;;;;83.25;47.78;;;7.60;99.90;;;;;;5049645;28;20480;-76
2020/12/22 09:32:25;;;;;;;102.78;53.25;;;7.80;99.90;;;;;;5052121;28;20025;-76
2020/12/22 09:34:51;;;;;;;86.20;49.38;;;7.80;99.90;;;;;;5051882;28;20025;-75
2020/12/22 09:37:17;;;;;;;71.85;45.63;;;7.90;99.90;;;;;;5052259;28;20032;-76
2020/12/22 09:39:45;;;;;;;70.28;42.53;;;8.10;99.90;;;;;;5051921;28;20032;-75
2020/12/22 09:42:11;;;;;;;75.82;44.55;;;8.10;99.90;;;;;;5052039;28;20078;-75
2020/12/22 09:44:37;;;;;;;85.75;46.90;;;8.10;99.90;;;;;;5052243;28;20021;-76
2020/12/22 09:47:04;;;;;;;68.85;42.40;;;8.20;99.90;;;;;;5051256;28;20384;-75
2020/12/22 09:49:30;;;;;;;69.28;42.25;;;8.20;99.90;;;;;;5050359;28;20055;-76
2020/12/22 09:51:56;;;;;;;70.70;43.78;;;8.30;99.90;;;;;;5052119;28;20029;-76
2020/12/22 09:54:22;;;;;;;83.68;47.72;;;8.20;99.90;;;;;;5051701;28;20047;-75
2020/12/22 09:56:49;;;;;;;80.25;47.67;;;8.30;99.90;;;;;;5032568;28;20030;-76
2020/12/22 09:59:16;;;;;;;165.48;78.00;;;8.50;99.90;;;;;;5047311;28;20376;-75
2020/12/22 10:01:42;;;;;;;137.45;68.57;;;8.60;99.90;;;;;;5049355;28;20029;-72
2020/12/22 10:04:08;;;;;;;184.30;94.13;;;8.70;99.90;;;;;;5051833;28;20410;-75
2020/12/22 10:06:34;;;;;;;253.00;113.07;;;9.20;99.90;;;;;;5052457;28;20135;-75
2020/12/22 10:09:00;;;;;;;121.20;63.60;;;9.20;99.90;;;;;;5050967;28;20112;-75
2020/12/22 10:11:26;;;;;;;109.20;61.45;;;9.20;99.90;;;;;;5050422;28;20021;-75
2020/12/22 10:13:53;;;;;;;101.78;52.45;;;9.10;99.90;;;;;;5052294;28;20024;-75
2020/12/22 10:16:21;;;;;;;84.72;49.10;;;9.20;99.90;;;;;;5052295;28;20036;-75
2020/12/22 10:18:47;;;;;;;174.77;85.53;;;9.20;99.90;;;;;;5051921;28;20036;-75
2020/12/22 10:21:15;;;;;;;259.75;114.25;;;9.20;99.90;;;;;;5052169;28;20029;-75
2020/12/22 10:23:42;;;;;;;294.58;123.15;;;9.40;99.90;;;;;;5051349;28;20048;-75
2020/12/22 10:26:11;;;;;;;287.33;122.28;;;9.30;99.90;;;;;;5051699;28;20120;-75
2020/12/22 10:28:39;;;;;;;192.68;88.93;;;9.40;99.90;;;;;;5048649;28;20509;-75
2020/12/22 10:31:06;;;;;;;93.72;54.80;;;9.60;99.90;;;;;;5049799;28;20045;-76
2020/12/22 10:33:32;;;;;;;204.70;89.72;;;9.60;99.90;;;;;;5049250;28;20487;-76
2020/12/22 10:35:58;;;;;;;457.00;235.57;;;9.70;99.90;;;;;;5051507;28;20032;-76
2020/12/22 10:38:24;;;;;;;180.43;87.70;;;9.70;99.90;;;;;;5050517;28;20581;-76
2020/12/22 10:40:50;;;;;;;304.63;132.93;;;9.70;99.90;;;;;;5049885;28;20029;-76
2020/12/22 10:43:16;;;;;;;130.00;73.10;;;9.80;99.90;;;;;;5051552;28;20021;-77
2020/12/22 10:45:43;;;;;;;112.15;67.95;;;9.90;99.90;;;;;;5050561;28;20037;-76
2020/12/22 10:48:08;;;;;;;103.28;60.97;;;10.00;99.90;;;;;;5051622;28;20024;-76
2020/12/22 10:50:35;;;;;;;97.07;60.50;;;10.00;99.90;;;;;;5051274;28;20020;-76
2020/12/22 10:53:03;;;;;;;90.15;56.70;;;10.20;99.90;;;;;;5051167;28;20046;-76
2020/12/22 10:55:29;;;;;;;101.97;62.70;;;10.20;99.90;;;;;;5051513;28;20036;-76
2020/12/22 10:57:54;;;;;;;133.98;74.85;;;10.30;99.90;;;;;;5051585;28;20479;-76
2020/12/22 11:00:20;;;;;;;99.15;60.08;;;10.40;99.90;;;;;;5051525;28;20032;-76
2020/12/22 11:02:49;;;;;;;156.15;86.35;;;10.50;99.90;;;;;;5050046;28;20484;-75
2020/12/22 11:05:15;;;;;;;127.63;73.53;;;10.30;99.90;;;;;;5051367;28;20075;-75
2020/12/22 11:07:53;;;;;;;97.82;61.33;;;10.50;99.90;;;;;;5049685;28;20025;-76
2020/12/22 11:10:19;;;;;;;286.60;78.85;;;10.60;99.90;;;;;;5051242;28;20408;-76
2020/12/22 11:12:46;;;;;;;113.93;72.28;;;10.80;99.90;;;;;;5050771;28;20033;-77
2020/12/22 11:15:13;;;;;;;127.10;73.53;;;10.80;99.90;;;;;;5050095;28;20495;-76
2020/12/22 11:17:39;;;;;;;127.95;78.13;;;10.80;99.90;;;;;;5051650;28;20032;-77
2020/12/22 11:20:05;;;;;;;313.90;184.00;;;10.70;99.90;;;;;;5050440;28;20025;-76
2020/12/22 11:22:31;;;;;;;134.30;89.32;;;10.60;99.90;;;;;;5051414;28;20381;-77
2020/12/22 11:24:57;;;;;;;147.85;89.25;;;10.70;99.90;;;;;;5067068;28;20036;-77
2020/12/22 11:27:22;;;;;;;144.18;86.07;;;10.90;99.90;;;;;;5051315;28;20050;-76
2020/12/22 11:29:48;;;;;;;160.45;101.07;;;10.90;99.90;;;;;;5051845;28;20040;-76
2020/12/22 11:32:14;;;;;;;132.15;88.28;;;11.00;99.90;;;;;;5051798;28;20032;-76
2020/12/22 11:34:40;;;;;;;125.78;79.57;;;11.00;99.90;;;;;;5051191;28;20025;-77
2020/12/22 11:37:06;;;;;;;138.88;87.13;;;11.20;99.90;;;;;;5051232;28;20384;-75
2020/12/22 11:39:31;;;;;;;130.80;84.13;;;11.40;99.90;;;;;;5050823;28;20056;-75
2020/12/22 11:42:02;;;;;;;124.57;80.40;;;11.40;99.90;;;;;;5050871;28;20067;-75
2020/12/22 11:44:28;;;;;;;165.10;100.45;;;11.30;99.90;;;;;;5049646;28;20036;-75
2020/12/22 11:46:54;;;;;;;154.57;98.38;;;11.10;99.90;;;;;;5049498;28;20013;-75
2020/12/22 11:49:25;;;;;;;257.27;142.60;;;11.10;99.90;;;;;;5049036;28;20431;-75
2020/12/22 11:51:57;;;;;;;;;;;10.90;99.90;;;;;;5051158;28;20052;-75
2020/12/22 11:54:25;;;;;;;131.90;80.78;;;10.80;99.90;;;;;;5050792;28;19912;-77
2020/12/22 11:56:52;;;;;;;131.75;82.05;;;11.90;99.90;;;;;;5052343;28;20021;-76
2020/12/22 11:59:18;;;;;;;136.48;89.53;;;11.30;99.90;;;;;;5054799;28;20092;-76
2020/12/22 12:01:45;;;;;;;134.75;87.43;;;10.90;99.90;;;;;;5055773;28;20025;-77
2020/12/22 12:04:12;;;;;;;142.32;92.60;;;10.70;99.90;;;;;;5054113;28;20033;-77
2020/12/22 12:06:47;;;;;;;140.52;92.75;;;10.50;99.90;;;;;;5055468;28;20461;-78
2020/12/22 12:09:13;;;;;;;150.48;92.95;;;10.40;99.90;;;;;;5054535;28;20587;-77
2020/12/22 12:11:39;;;;;;;241.07;132.20;;;10.40;99.90;;;;;;5088287;28;20025;-77
2020/12/22 12:14:06;;;;;;;168.10;99.03;;;10.30;99.90;;;;;;5055701;28;20045;-77
2020/12/22 12:16:32;;;;;;;149.18;94.30;;;10.30;99.90;;;;;;5056123;28;20535;-78
2020/12/22 12:18:58;;;;;;;220.60;120.90;;;10.20;99.90;;;;;;5056091;28;20103;-78
2020/12/22 12:21:23;;;;;;;280.55;150.05;;;10.20;99.90;;;;;;5071330;28;20167;-77
2020/12/22 12:23:49;;;;;;;163.45;104.45;;;10.20;99.90;;;;;;5070591;28;20077;-77
2020/12/22 12:26:15;;;;;;;151.00;95.93;;;10.10;99.90;;;;;;5054951;28;20029;-77
2020/12/22 12:28:42;;;;;;;163.75;101.35;;;10.10;99.90;;;;;;5055429;28;20024;-78
2020/12/22 12:31:14;;;;;;;273.75;140.95;;;10.00;99.90;;;;;;5055553;28;20013;-77